sensor_id;sensor_type;location;lat;lon;timestamp;temperature;humidity
41720;DHT22;27405;53.316;-6.294;2022-09-09T00:02:20;15.30;99.90
41720;DHT22;27405;53.316;-6.294;2022-09-09T00:05:04;15.30;99.90
41720;DHT22;27405;53.316;-6.294;2022-09-09T00:07:48;15.20;99.90
41720;DHT22;27405;53.316;-6.294;2022-09-09T00:10:29;15.20;99.90
41720;DHT22;27405;53.316;-6.294;2022-09-09T00:13:22;15.20;99.90
41720;DHT22;27405;53.316;-6.294;2022-09-09T00:18:51;15.20;99.90
41720;DHT22;27405;53.316;-6.294;2022-09-09T00:21:30;15.10;99.90
41720;DHT22;27405;53.316;-6.294;2022-09-09T00:23:58;15.10;99.90
41720;DHT22;27405;53.316;-6.294;2022-09-09T00:29:15;15.00;99.90
41720;DHT22;27405;53.316;-6.294;2022-09-09T00:31:43;15.00;99.90
41720;DHT22;27405;53.316;-6.294;2022-09-09T00:34:13;14.90;99.90
41720;DHT22;27405;53.316;-6.294;2022-09-09T00:36:42;14.90;99.90
41720;DHT22;27405;53.316;-6.294;2022-09-09T00:39:39;14.90;99.90
41720;DHT22;27405;53.316;-6.294;2022-09-09T00:52:41;14.90;99.90
41720;DHT22;27405;53.316;-6.294;2022-09-09T00:55:32;14.90;99.90
41720;DHT22;27405;53.316;-6.294;2022-09-09T00:57:59;14.90;99.90
41720;DHT22;27405;53.316;-6.294;2022-09-09T01:00:27;14.90;99.90
41720;DHT22;27405;53.316;-6.294;2022-09-09T01:08:02;15.00;99.90
41720;DHT22;27405;53.316;-6.294;2022-09-09T01:10:50;15.00;99.90
41720;DHT22;27405;53.316;-6.294;2022-09-09T01:13:30;15.00;99.90
41720;DHT22;27405;53.316;-6.294;2022-09-09T01:16:00;15.00;99.90
41720;DHT22;27405;53.316;-6.294;2022-09-09T01:18:47;15.00;99.90
41720;DHT22;27405;53.316;-6.294;2022-09-09T01:21:29;15.00;99.90
41720;DHT22;27405;53.316;-6.294;2022-09-09T01:24:26;15.10;99.90
41720;DHT22;27405;53.316;-6.294;2022-09-09T01:26:56;15.00;99.90
41720;DHT22;27405;53.316;-6.294;2022-09-09T01:29:24;15.10;99.90
41720;DHT22;27405;53.316;-6.294;2022-09-09T01:34:23;15.00;99.90
41720;DHT22;27405;53.316;-6.294;2022-09-09T01:39:37;15.10;99.90
41720;DHT22;27405;53.316;-6.294;2022-09-09T01:42:05;15.10;99.90
41720;DHT22;27405;53.316;-6.294;2022-09-09T01:44:32;15.10;99.90
41720;DHT22;27405;53.316;-6.294;2022-09-09T01:46:58;15.10;99.90
41720;DHT22;27405;53.316;-6.294;2022-09-09T01:49:24;15.10;99.90
41720;DHT22;27405;53.316;-6.294;2022-09-09T01:51:52;15.20;99.90
41720;DHT22;27405;53.316;-6.294;2022-09-09T01:54:21;15.10;99.90
41720;DHT22;27405;53.316;-6.294;2022-09-09T01:57:15;15.20;99.90
41720;DHT22;27405;53.316;-6.294;2022-09-09T02:00:08;15.20;99.90
41720;DHT22;27405;53.316;-6.294;2022-09-09T02:05:31;15.20;99.90
41720;DHT22;27405;53.316;-6.294;2022-09-09T02:08:21;15.20;99.90
41720;DHT22;27405;53.316;-6.294;2022-09-09T02:13:17;15.20;99.90
41720;DHT22;27405;53.316;-6.294;2022-09-09T02:15:59;15.20;99.90
41720;DHT22;27405;53.316;-6.294;2022-09-09T02:18:47;15.20;99.90
41720;DHT22;27405;53.316;-6.294;2022-09-09T02:21:14;15.20;99.90
41720;DHT22;27405;53.316;-6.294;2022-09-09T02:23:42;15.20;99.90
41720;DHT22;27405;53.316;-6.294;2022-09-09T02:26:10;15.20;99.90
41720;DHT22;27405;53.316;-6.294;2022-09-09T02:28:39;15.20;99.90
41720;DHT22;27405;53.316;-6.294;2022-09-09T02:31:06;15.20;99.90
41720;DHT22;27405;53.316;-6.294;2022-09-09T02:33:37;15.20;99.90
41720;DHT22;27405;53.316;-6.294;2022-09-09T02:36:04;15.20;99.90
41720;DHT22;27405;53.316;-6.294;2022-09-09T02:38:36;15.20;99.90
41720;DHT22;27405;53.316;-6.294;2022-09-09T02:41:03;15.20;99.90
41720;DHT22;27405;53.316;-6.294;2022-09-09T02:43:33;15.20;99.90
41720;DHT22;27405;53.316;-6.294;2022-09-09T02:49:09;15.20;99.90
41720;DHT22;27405;53.316;-6.294;2022-09-09T02:54:21;15.20;99.90
41720;DHT22;27405;53.316;-6.294;2022-09-09T02:56:52;15.20;99.90
41720;DHT22;27405;53.316;-6.294;2022-09-09T02:59:22;15.20;99.90
41720;DHT22;27405;53.316;-6.294;2022-09-09T03:01:50;15.20;99.90
41720;DHT22;27405;53.316;-6.294;2022-09-09T03:04:15;15.30;99.90
41720;DHT22;27405;53.316;-6.294;2022-09-09T03:06:41;15.30;99.90
41720;DHT22;27405;53.316;-6.294;2022-09-09T03:09:07;15.20;99.90
41720;DHT22;27405;53.316;-6.294;2022-09-09T03:11:35;15.20;99.90
41720;DHT22;27405;53.316;-6.294;2022-09-09T03:14:02;15.20;99.90
41720;DHT22;27405;53.316;-6.294;2022-09-09T03:16:28;15.20;99.90
41720;DHT22;27405;53.316;-6.294;2022-09-09T03:18:54;15.20;99.90
41720;DHT22;27405;53.316;-6.294;2022-09-09T03:21:19;15.10;99.90
41720;DHT22;27405;53.316;-6.294;2022-09-09T03:23:45;15.10;99.90
41720;DHT22;27405;53.316;-6.294;2022-09-09T03:26:11;15.10;99.90
41720;DHT22;27405;53.316;-6.294;2022-09-09T03:28:37;15.10;99.90
41720;DHT22;27405;53.316;-6.294;2022-09-09T03:31:04;15.10;99.90
41720;DHT22;27405;53.316;-6.294;2022-09-09T03:33:30;15.10;99.90
41720;DHT22;27405;53.316;-6.294;2022-09-09T03:35:56;15.10;99.90
41720;DHT22;27405;53.316;-6.294;2022-09-09T03:38:23;15.10;99.90
41720;DHT22;27405;53.316;-6.294;2022-09-09T03:40:53;15.10;99.90
41720;DHT22;27405;53.316;-6.294;2022-09-09T03:43:21;15.10;99.90
41720;DHT22;27405;53.316;-6.294;2022-09-09T03:45:47;15.00;99.90
41720;DHT22;27405;53.316;-6.294;2022-09-09T03:48:14;14.90;99.90
41720;DHT22;27405;53.316;-6.294;2022-09-09T03:50:47;14.90;99.90
41720;DHT22;27405;53.316;-6.294;2022-09-09T03:53:15;14.90;99.90
41720;DHT22;27405;53.316;-6.294;2022-09-09T03:55:49;14.90;99.90
41720;DHT22;27405;53.316;-6.294;2022-09-09T03:58:16;14.90;99.90
41720;DHT22;27405;53.316;-6.294;2022-09-09T04:00:56;14.90;99.90
41720;DHT22;27405;53.316;-6.294;2022-09-09T04:03:23;14.80;99.90
41720;DHT22;27405;53.316;-6.294;2022-09-09T04:05:53;14.80;99.90
41720;DHT22;27405;53.316;-6.294;2022-09-09T04:08:20;14.80;99.90
41720;DHT22;27405;53.316;-6.294;2022-09-09T04:10:47;14.80;99.90
41720;DHT22;27405;53.316;-6.294;2022-09-09T04:13:14;14.80;99.90
41720;DHT22;27405;53.316;-6.294;2022-09-09T04:15:41;14.80;99.90
41720;DHT22;27405;53.316;-6.294;2022-09-09T04:18:08;14.80;99.90
41720;DHT22;27405;53.316;-6.294;2022-09-09T04:20:34;14.80;99.90
41720;DHT22;27405;53.316;-6.294;2022-09-09T04:22:59;14.80;99.90
41720;DHT22;27405;53.316;-6.294;2022-09-09T04:25:25;14.80;99.90
41720;DHT22;27405;53.316;-6.294;2022-09-09T04:27:55;14.80;99.90
41720;DHT22;27405;53.316;-6.294;2022-09-09T04:30:21;14.80;99.90
41720;DHT22;27405;53.316;-6.294;2022-09-09T04:32:47;14.70;99.90
41720;DHT22;27405;53.316;-6.294;2022-09-09T04:35:13;14.70;99.90
41720;DHT22;27405;53.316;-6.294;2022-09-09T04:37:39;14.80;99.90
41720;DHT22;27405;53.316;-6.294;2022-09-09T04:40:05;14.70;99.90
41720;DHT22;27405;53.316;-6.294;2022-09-09T04:42:35;14.80;99.90
41720;DHT22;27405;53.316;-6.294;2022-09-09T04:45:01;14.80;99.90
41720;DHT22;27405;53.316;-6.294;2022-09-09T04:47:27;14.70;99.90
41720;DHT22;27405;53.316;-6.294;2022-09-09T04:49:52;14.80;99.90
41720;DHT22;27405;53.316;-6.294;2022-09-09T04:52:20;14.70;99.90
41720;DHT22;27405;53.316;-6.294;2022-09-09T04:54:46;14.70;99.90
41720;DHT22;27405;53.316;-6.294;2022-09-09T04:57:12;14.70;99.90
41720;DHT22;27405;53.316;-6.294;2022-09-09T04:59:38;14.70;99.90
41720;DHT22;27405;53.316;-6.294;2022-09-09T05:02:05;14.70;99.90
41720;DHT22;27405;53.316;-6.294;2022-09-09T05:04:30;14.70;99.90
41720;DHT22;27405;53.316;-6.294;2022-09-09T05:06:56;14.70;99.90
41720;DHT22;27405;53.316;-6.294;2022-09-09T05:09:22;14.70;99.90
41720;DHT22;27405;53.316;-6.294;2022-09-09T05:11:47;14.70;99.90
41720;DHT22;27405;53.316;-6.294;2022-09-09T05:14:14;14.70;99.90
41720;DHT22;27405;53.316;-6.294;2022-09-09T05:16:40;14.70;99.90
41720;DHT22;27405;53.316;-6.294;2022-09-09T05:19:06;14.70;99.90
41720;DHT22;27405;53.316;-6.294;2022-09-09T05:21:33;14.70;99.90
41720;DHT22;27405;53.316;-6.294;2022-09-09T05:23:59;14.70;99.90
41720;DHT22;27405;53.316;-6.294;2022-09-09T05:26:26;14.60;99.90
41720;DHT22;27405;53.316;-6.294;2022-09-09T05:28:51;14.70;99.90
41720;DHT22;27405;53.316;-6.294;2022-09-09T05:31:18;14.70;99.90
41720;DHT22;27405;53.316;-6.294;2022-09-09T05:33:45;14.70;99.90
41720;DHT22;27405;53.316;-6.294;2022-09-09T05:36:14;14.70;99.90
41720;DHT22;27405;53.316;-6.294;2022-09-09T05:38:40;14.70;99.90
41720;DHT22;27405;53.316;-6.294;2022-09-09T05:41:07;14.70;99.90
41720;DHT22;27405;53.316;-6.294;2022-09-09T05:43:33;14.70;99.90
41720;DHT22;27405;53.316;-6.294;2022-09-09T05:46:11;14.70;99.90
41720;DHT22;27405;53.316;-6.294;2022-09-09T05:48:39;14.70;99.90
41720;DHT22;27405;53.316;-6.294;2022-09-09T05:51:08;14.70;99.90
41720;DHT22;27405;53.316;-6.294;2022-09-09T05:53:35;14.80;99.90
41720;DHT22;27405;53.316;-6.294;2022-09-09T05:56:07;14.70;99.90
41720;DHT22;27405;53.316;-6.294;2022-09-09T05:58:35;14.70;99.90
41720;DHT22;27405;53.316;-6.294;2022-09-09T06:01:22;14.70;99.90
41720;DHT22;27405;53.316;-6.294;2022-09-09T06:03:49;14.70;99.90
41720;DHT22;27405;53.316;-6.294;2022-09-09T06:06:17;14.70;99.90
41720;DHT22;27405;53.316;-6.294;2022-09-09T06:08:46;14.80;99.90
41720;DHT22;27405;53.316;-6.294;2022-09-09T06:11:17;14.80;99.90
41720;DHT22;27405;53.316;-6.294;2022-09-09T06:13:43;14.80;99.90
41720;DHT22;27405;53.316;-6.294;2022-09-09T06:16:15;14.80;99.90
41720;DHT22;27405;53.316;-6.294;2022-09-09T06:18:42;14.90;99.90
41720;DHT22;27405;53.316;-6.294;2022-09-09T06:21:28;14.90;99.90
41720;DHT22;27405;53.316;-6.294;2022-09-09T06:23:55;14.90;99.90
41720;DHT22;27405;53.316;-6.294;2022-09-09T06:28:48;15.00;99.90
41720;DHT22;27405;53.316;-6.294;2022-09-09T06:31:17;15.00;99.90
41720;DHT22;27405;53.316;-6.294;2022-09-09T06:33:43;15.00;99.90
41720;DHT22;27405;53.316;-6.294;2022-09-09T06:36:14;15.00;99.90
41720;DHT22;27405;53.316;-6.294;2022-09-09T06:38:43;15.00;99.90
41720;DHT22;27405;53.316;-6.294;2022-09-09T06:41:10;15.00;99.90
41720;DHT22;27405;53.316;-6.294;2022-09-09T06:43:36;15.10;99.90
41720;DHT22;27405;53.316;-6.294;2022-09-09T06:46:09;15.10;99.90
41720;DHT22;27405;53.316;-6.294;2022-09-09T06:48:35;15.10;99.90
41720;DHT22;27405;53.316;-6.294;2022-09-09T06:51:09;15.10;99.90
41720;DHT22;27405;53.316;-6.294;2022-09-09T06:53:37;15.10;99.90
41720;DHT22;27405;53.316;-6.294;2022-09-09T06:56:22;15.20;99.90
41720;DHT22;27405;53.316;-6.294;2022-09-09T06:58:49;15.20;99.90
41720;DHT22;27405;53.316;-6.294;2022-09-09T07:01:21;15.20;99.90
41720;DHT22;27405;53.316;-6.294;2022-09-09T07:03:49;15.20;99.90
41720;DHT22;27405;53.316;-6.294;2022-09-09T07:06:21;15.20;99.90
41720;DHT22;27405;53.316;-6.294;2022-09-09T07:08:55;15.20;99.90
41720;DHT22;27405;53.316;-6.294;2022-09-09T07:11:22;15.30;99.90
41720;DHT22;27405;53.316;-6.294;2022-09-09T07:13:48;15.30;99.90
41720;DHT22;27405;53.316;-6.294;2022-09-09T07:16:17;15.30;99.90
41720;DHT22;27405;53.316;-6.294;2022-09-09T07:18:43;15.30;99.90
41720;DHT22;27405;53.316;-6.294;2022-09-09T07:21:14;15.40;99.90
41720;DHT22;27405;53.316;-6.294;2022-09-09T07:23:41;15.40;99.90
41720;DHT22;27405;53.316;-6.294;2022-09-09T07:26:11;15.40;99.90
41720;DHT22;27405;53.316;-6.294;2022-09-09T07:28:37;15.50;99.90
41720;DHT22;27405;53.316;-6.294;2022-09-09T07:31:04;15.50;99.90
41720;DHT22;27405;53.316;-6.294;2022-09-09T07:33:31;15.50;99.90
41720;DHT22;27405;53.316;-6.294;2022-09-09T07:36:09;15.50;99.90
41720;DHT22;27405;53.316;-6.294;2022-09-09T07:38:46;15.50;99.90
41720;DHT22;27405;53.316;-6.294;2022-09-09T07:41:14;15.60;99.90
41720;DHT22;27405;53.316;-6.294;2022-09-09T07:43:41;15.50;99.90
41720;DHT22;27405;53.316;-6.294;2022-09-09T07:46:08;15.60;99.90
41720;DHT22;27405;53.316;-6.294;2022-09-09T07:48:35;15.60;99.90
41720;DHT22;27405;53.316;-6.294;2022-09-09T07:51:15;15.70;99.90
41720;DHT22;27405;53.316;-6.294;2022-09-09T07:53:45;15.70;99.90
41720;DHT22;27405;53.316;-6.294;2022-09-09T07:56:14;15.80;99.90
41720;DHT22;27405;53.316;-6.294;2022-09-09T07:58:44;15.90;99.90
41720;DHT22;27405;53.316;-6.294;2022-09-09T08:01:16;15.90;99.90
41720;DHT22;27405;53.316;-6.294;2022-09-09T08:03:47;16.00;99.90
41720;DHT22;27405;53.316;-6.294;2022-09-09T08:06:17;16.10;99.90
41720;DHT22;27405;53.316;-6.294;2022-09-09T08:08:43;16.10;99.90
41720;DHT22;27405;53.316;-6.294;2022-09-09T08:11:11;16.20;99.90
41720;DHT22;27405;53.316;-6.294;2022-09-09T08:13:38;16.30;99.90
41720;DHT22;27405;53.316;-6.294;2022-09-09T08:16:06;16.40;99.90
41720;DHT22;27405;53.316;-6.294;2022-09-09T08:18:33;16.50;99.90
41720;DHT22;27405;53.316;-6.294;2022-09-09T08:21:08;16.50;99.90
41720;DHT22;27405;53.316;-6.294;2022-09-09T08:23:37;16.50;99.90
41720;DHT22;27405;53.316;-6.294;2022-09-09T08:26:16;16.50;99.90
41720;DHT22;27405;53.316;-6.294;2022-09-09T08:28:42;16.50;99.90
41720;DHT22;27405;53.316;-6.294;2022-09-09T08:31:14;16.60;99.90
41720;DHT22;27405;53.316;-6.294;2022-09-09T08:33:42;16.60;99.90
41720;DHT22;27405;53.316;-6.294;2022-09-09T08:36:17;16.70;99.90
41720;DHT22;27405;53.316;-6.294;2022-09-09T08:38:43;16.70;99.90
41720;DHT22;27405;53.316;-6.294;2022-09-09T08:43:48;16.80;99.90
41720;DHT22;27405;53.316;-6.294;2022-09-09T08:46:19;16.90;99.90
41720;DHT22;27405;53.316;-6.294;2022-09-09T08:48:58;16.90;99.90
41720;DHT22;27405;53.316;-6.294;2022-09-09T08:51:30;16.90;99.90
41720;DHT22;27405;53.316;-6.294;2022-09-09T08:53:59;16.90;99.90
41720;DHT22;27405;53.316;-6.294;2022-09-09T08:56:27;16.90;99.90
41720;DHT22;27405;53.316;-6.294;2022-09-09T08:58:56;17.00;99.90
41720;DHT22;27405;53.316;-6.294;2022-09-09T09:01:39;17.00;99.90
41720;DHT22;27405;53.316;-6.294;2022-09-09T09:04:29;17.10;99.90
41720;DHT22;27405;53.316;-6.294;2022-09-09T09:09:52;17.20;99.90
41720;DHT22;27405;53.316;-6.294;2022-09-09T09:12:27;17.30;99.90
41720;DHT22;27405;53.316;-6.294;2022-09-09T09:14:54;17.40;99.90
41720;DHT22;27405;53.316;-6.294;2022-09-09T09:17:24;17.50;99.90
41720;DHT22;27405;53.316;-6.294;2022-09-09T09:19:50;17.60;99.90
41720;DHT22;27405;53.316;-6.294;2022-09-09T09:24:57;17.60;99.90
41720;DHT22;27405;53.316;-6.294;2022-09-09T09:27:40;17.50;99.90
41720;DHT22;27405;53.316;-6.294;2022-09-09T09:30:18;17.60;99.90
41720;DHT22;27405;53.316;-6.294;2022-09-09T09:33:05;17.60;99.90
41720;DHT22;27405;53.316;-6.294;2022-09-09T09:35:32;17.70;99.90
41720;DHT22;27405;53.316;-6.294;2022-09-09T09:37:58;17.70;99.90
41720;DHT22;27405;53.316;-6.294;2022-09-09T09:40:26;17.80;99.90
41720;DHT22;27405;53.316;-6.294;2022-09-09T09:43:00;17.80;99.90
41720;DHT22;27405;53.316;-6.294;2022-09-09T09:45:32;17.80;99.90
41720;DHT22;27405;53.316;-6.294;2022-09-09T09:48:10;17.70;99.90
41720;DHT22;27405;53.316;-6.294;2022-09-09T09:50:50;17.70;99.90
41720;DHT22;27405;53.316;-6.294;2022-09-09T09:56:00;17.90;99.90
41720;DHT22;27405;53.316;-6.294;2022-09-09T09:58:55;18.00;99.90
41720;DHT22;27405;53.316;-6.294;2022-09-09T10:01:21;18.10;99.90
41720;DHT22;27405;53.316;-6.294;2022-09-09T10:03:52;18.20;99.90
41720;DHT22;27405;53.316;-6.294;2022-09-09T10:06:32;18.30;99.90
41720;DHT22;27405;53.316;-6.294;2022-09-09T10:08:59;18.40;99.90
41720;DHT22;27405;53.316;-6.294;2022-09-09T10:19:36;18.60;99.90
41720;DHT22;27405;53.316;-6.294;2022-09-09T10:25:22;18.60;99.90
41720;DHT22;27405;53.316;-6.294;2022-09-09T10:28:25;18.60;99.90
41720;DHT22;27405;53.316;-6.294;2022-09-09T10:36:49;18.70;99.90
41720;DHT22;27405;53.316;-6.294;2022-09-09T10:39:34;18.70;99.90
41720;DHT22;27405;53.316;-6.294;2022-09-09T10:42:13;18.80;99.90
41720;DHT22;27405;53.316;-6.294;2022-09-09T10:45:27;18.90;99.90
41720;DHT22;27405;53.316;-6.294;2022-09-09T10:48:09;19.00;99.90
41720;DHT22;27405;53.316;-6.294;2022-09-09T10:53:43;19.20;99.90
41720;DHT22;27405;53.316;-6.294;2022-09-09T10:56:15;19.10;99.90
41720;DHT22;27405;53.316;-6.294;2022-09-09T11:01:20;19.10;99.90
41720;DHT22;27405;53.316;-6.294;2022-09-09T11:06:56;19.00;99.90
41720;DHT22;27405;53.316;-6.294;2022-09-09T11:09:30;19.00;99.90
41720;DHT22;27405;53.316;-6.294;2022-09-09T11:11:59;18.90;99.90
41720;DHT22;27405;53.316;-6.294;2022-09-09T11:14:41;18.90;99.90
41720;DHT22;27405;53.316;-6.294;2022-09-09T11:17:24;18.90;99.90
41720;DHT22;27405;53.316;-6.294;2022-09-09T11:19:52;19.00;99.90
41720;DHT22;27405;53.316;-6.294;2022-09-09T11:25:18;19.20;99.90
41720;DHT22;27405;53.316;-6.294;2022-09-09T11:44:37;19.40;99.90
41720;DHT22;27405;53.316;-6.294;2022-09-09T11:47:03;19.40;99.90
41720;DHT22;27405;53.316;-6.294;2022-09-09T11:49:29;19.30;99.90
41720;DHT22;27405;53.316;-6.294;2022-09-09T11:52:23;19.20;99.90
41720;DHT22;27405;53.316;-6.294;2022-09-09T11:54:51;19.20;99.90
41720;DHT22;27405;53.316;-6.294;2022-09-09T11:57:32;19.30;99.90
41720;DHT22;27405;53.316;-6.294;2022-09-09T12:00:00;19.40;99.90
41720;DHT22;27405;53.316;-6.294;2022-09-09T12:02:27;19.50;99.90
41720;DHT22;27405;53.316;-6.294;2022-09-09T12:05:09;19.60;99.90
41720;DHT22;27405;53.316;-6.294;2022-09-09T12:07:41;19.60;99.90
41720;DHT22;27405;53.316;-6.294;2022-09-09T12:10:30;19.70;99.90
41720;DHT22;27405;53.316;-6.294;2022-09-09T12:13:20;19.70;99.90
41720;DHT22;27405;53.316;-6.294;2022-09-09T12:15:58;19.50;99.90
41720;DHT22;27405;53.316;-6.294;2022-09-09T12:18:45;19.40;99.90
41720;DHT22;27405;53.316;-6.294;2022-09-09T12:21:48;19.30;99.90
41720;DHT22;27405;53.316;-6.294;2022-09-09T12:24:49;19.30;99.90
41720;DHT22;27405;53.316;-6.294;2022-09-09T12:27:42;19.50;99.90
41720;DHT22;27405;53.316;-6.294;2022-09-09T12:30:10;19.80;99.90
41720;DHT22;27405;53.316;-6.294;2022-09-09T12:32:37;20.00;99.90
41720;DHT22;27405;53.316;-6.294;2022-09-09T12:35:22;20.00;99.90
41720;DHT22;27405;53.316;-6.294;2022-09-09T12:37:59;20.00;99.90
41720;DHT22;27405;53.316;-6.294;2022-09-09T12:40:27;20.00;99.90
41720;DHT22;27405;53.316;-6.294;2022-09-09T12:42:53;19.90;99.90
41720;DHT22;27405;53.316;-6.294;2022-09-09T12:45:25;19.80;99.90
41720;DHT22;27405;53.316;-6.294;2022-09-09T12:48:08;19.70;99.90
41720;DHT22;27405;53.316;-6.294;2022-09-09T12:50:38;19.60;99.90
41720;DHT22;27405;53.316;-6.294;2022-09-09T12:53:14;19.60;99.90
41720;DHT22;27405;53.316;-6.294;2022-09-09T12:55:51;19.50;99.90
41720;DHT22;27405;53.316;-6.294;2022-09-09T12:58:18;19.50;99.90
41720;DHT22;27405;53.316;-6.294;2022-09-09T13:00:55;19.60;99.90
41720;DHT22;27405;53.316;-6.294;2022-09-09T13:03:22;19.80;99.90
41720;DHT22;27405;53.316;-6.294;2022-09-09T13:05:49;20.00;99.90
41720;DHT22;27405;53.316;-6.294;2022-09-09T13:08:16;20.20;99.90
41720;DHT22;27405;53.316;-6.294;2022-09-09T13:10:59;20.30;99.90
41720;DHT22;27405;53.316;-6.294;2022-09-09T13:13:36;20.50;99.90
41720;DHT22;27405;53.316;-6.294;2022-09-09T13:16:05;20.60;99.90
41720;DHT22;27405;53.316;-6.294;2022-09-09T13:18:35;20.60;99.90
41720;DHT22;27405;53.316;-6.294;2022-09-09T13:21:02;20.50;99.90
41720;DHT22;27405;53.316;-6.294;2022-09-09T13:23:30;20.40;99.90
41720;DHT22;27405;53.316;-6.294;2022-09-09T13:26:02;20.30;99.90
41720;DHT22;27405;53.316;-6.294;2022-09-09T13:28:30;20.30;99.90
41720;DHT22;27405;53.316;-6.294;2022-09-09T13:31:04;20.40;99.90
41720;DHT22;27405;53.316;-6.294;2022-09-09T13:33:34;20.40;99.90
41720;DHT22;27405;53.316;-6.294;2022-09-09T13:36:07;20.50;99.90
41720;DHT22;27405;53.316;-6.294;2022-09-09T13:38:38;20.50;99.90
41720;DHT22;27405;53.316;-6.294;2022-09-09T13:41:08;20.50;99.90
41720;DHT22;27405;53.316;-6.294;2022-09-09T13:43:45;20.50;99.90
41720;DHT22;27405;53.316;-6.294;2022-09-09T13:46:38;20.40;99.90
41720;DHT22;27405;53.316;-6.294;2022-09-09T13:51:41;20.30;99.90
41720;DHT22;27405;53.316;-6.294;2022-09-09T13:54:11;20.20;99.90
41720;DHT22;27405;53.316;-6.294;2022-09-09T13:56:39;20.20;99.90
41720;DHT22;27405;53.316;-6.294;2022-09-09T13:59:13;20.20;99.90
41720;DHT22;27405;53.316;-6.294;2022-09-09T14:01:39;20.30;99.90
41720;DHT22;27405;53.316;-6.294;2022-09-09T14:04:05;20.40;99.90
41720;DHT22;27405;53.316;-6.294;2022-09-09T14:06:32;20.40;99.90
41720;DHT22;27405;53.316;-6.294;2022-09-09T14:08:58;20.40;99.90
41720;DHT22;27405;53.316;-6.294;2022-09-09T14:11:24;20.40;99.90
41720;DHT22;27405;53.316;-6.294;2022-09-09T14:13:49;20.40;99.90
41720;DHT22;27405;53.316;-6.294;2022-09-09T14:16:16;20.30;99.90
41720;DHT22;27405;53.316;-6.294;2022-09-09T14:18:43;20.30;99.90
41720;DHT22;27405;53.316;-6.294;2022-09-09T14:21:09;20.20;99.90
41720;DHT22;27405;53.316;-6.294;2022-09-09T14:23:35;20.10;99.90
41720;DHT22;27405;53.316;-6.294;2022-09-09T14:26:01;20.00;99.90
41720;DHT22;27405;53.316;-6.294;2022-09-09T14:28:27;19.90;99.90
41720;DHT22;27405;53.316;-6.294;2022-09-09T14:30:54;19.80;99.90
41720;DHT22;27405;53.316;-6.294;2022-09-09T14:33:19;19.80;99.90
41720;DHT22;27405;53.316;-6.294;2022-09-09T14:35:45;19.80;99.90
41720;DHT22;27405;53.316;-6.294;2022-09-09T14:38:11;19.90;99.90
41720;DHT22;27405;53.316;-6.294;2022-09-09T14:40:38;19.90;99.90
41720;DHT22;27405;53.316;-6.294;2022-09-09T14:43:05;20.00;99.90
41720;DHT22;27405;53.316;-6.294;2022-09-09T14:45:31;19.90;99.90
41720;DHT22;27405;53.316;-6.294;2022-09-09T14:47:57;20.00;99.90
41720;DHT22;27405;53.316;-6.294;2022-09-09T14:50:23;20.00;99.90
41720;DHT22;27405;53.316;-6.294;2022-09-09T14:52:49;20.20;99.90
41720;DHT22;27405;53.316;-6.294;2022-09-09T14:55:16;20.30;99.90
41720;DHT22;27405;53.316;-6.294;2022-09-09T14:57:42;20.60;99.90
41720;DHT22;27405;53.316;-6.294;2022-09-09T15:00:09;20.70;99.90
41720;DHT22;27405;53.316;-6.294;2022-09-09T15:02:35;20.70;99.90
41720;DHT22;27405;53.316;-6.294;2022-09-09T15:05:01;20.60;99.90
41720;DHT22;27405;53.316;-6.294;2022-09-09T15:07:27;20.50;99.90
41720;DHT22;27405;53.316;-6.294;2022-09-09T15:09:54;20.50;99.90
41720;DHT22;27405;53.316;-6.294;2022-09-09T15:12:20;20.50;99.90
41720;DHT22;27405;53.316;-6.294;2022-09-09T15:14:46;20.50;99.90
41720;DHT22;27405;53.316;-6.294;2022-09-09T15:17:13;20.60;99.90
41720;DHT22;27405;53.316;-6.294;2022-09-09T15:19:39;20.70;99.90
41720;DHT22;27405;53.316;-6.294;2022-09-09T15:22:05;20.80;99.90
41720;DHT22;27405;53.316;-6.294;2022-09-09T15:24:34;20.90;99.90
41720;DHT22;27405;53.316;-6.294;2022-09-09T15:27:01;21.00;99.90
41720;DHT22;27405;53.316;-6.294;2022-09-09T15:29:27;21.10;99.90
41720;DHT22;27405;53.316;-6.294;2022-09-09T15:31:56;21.20;99.90
41720;DHT22;27405;53.316;-6.294;2022-09-09T15:34:22;21.20;99.90
41720;DHT22;27405;53.316;-6.294;2022-09-09T15:36:47;21.10;99.90
41720;DHT22;27405;53.316;-6.294;2022-09-09T15:39:17;21.00;99.90
41720;DHT22;27405;53.316;-6.294;2022-09-09T15:41:45;20.90;99.90
41720;DHT22;27405;53.316;-6.294;2022-09-09T15:44:11;20.70;99.90
41720;DHT22;27405;53.316;-6.294;2022-09-09T15:46:46;20.50;99.90
41720;DHT22;27405;53.316;-6.294;2022-09-09T15:49:19;20.40;99.90
41720;DHT22;27405;53.316;-6.294;2022-09-09T15:51:47;20.30;99.90
41720;DHT22;27405;53.316;-6.294;2022-09-09T15:54:18;20.20;99.90
41720;DHT22;27405;53.316;-6.294;2022-09-09T15:56:45;20.10;99.90
41720;DHT22;27405;53.316;-6.294;2022-09-09T15:59:11;20.10;99.90
41720;DHT22;27405;53.316;-6.294;2022-09-09T16:01:37;20.10;99.90
41720;DHT22;27405;53.316;-6.294;2022-09-09T16:04:04;20.10;99.90
41720;DHT22;27405;53.316;-6.294;2022-09-09T16:06:30;20.00;99.90
41720;DHT22;27405;53.316;-6.294;2022-09-09T16:08:57;20.00;99.90
41720;DHT22;27405;53.316;-6.294;2022-09-09T16:11:27;20.00;99.90
41720;DHT22;27405;53.316;-6.294;2022-09-09T16:13:54;19.90;99.90
41720;DHT22;27405;53.316;-6.294;2022-09-09T16:16:22;19.90;99.90
41720;DHT22;27405;53.316;-6.294;2022-09-09T16:18:49;20.00;99.90
41720;DHT22;27405;53.316;-6.294;2022-09-09T16:21:18;20.00;99.90
41720;DHT22;27405;53.316;-6.294;2022-09-09T16:23:44;20.10;99.90
41720;DHT22;27405;53.316;-6.294;2022-09-09T16:26:12;20.10;99.90
41720;DHT22;27405;53.316;-6.294;2022-09-09T16:28:38;20.10;99.90
41720;DHT22;27405;53.316;-6.294;2022-09-09T16:31:09;20.00;99.90
41720;DHT22;27405;53.316;-6.294;2022-09-09T16:33:36;20.00;99.90
41720;DHT22;27405;53.316;-6.294;2022-09-09T16:36:06;20.00;99.90
41720;DHT22;27405;53.316;-6.294;2022-09-09T16:38:32;19.90;99.90
41720;DHT22;27405;53.316;-6.294;2022-09-09T16:40:59;19.90;99.90
41720;DHT22;27405;53.316;-6.294;2022-09-09T16:43:25;19.80;99.90
41720;DHT22;27405;53.316;-6.294;2022-09-09T16:45:51;19.80;99.90
41720;DHT22;27405;53.316;-6.294;2022-09-09T16:48:16;19.70;99.90
41720;DHT22;27405;53.316;-6.294;2022-09-09T16:50:42;19.70;99.90
41720;DHT22;27405;53.316;-6.294;2022-09-09T16:53:08;19.60;99.90
41720;DHT22;27405;53.316;-6.294;2022-09-09T16:55:39;19.60;99.90
41720;DHT22;27405;53.316;-6.294;2022-09-09T16:58:12;19.50;99.90
41720;DHT22;27405;53.316;-6.294;2022-09-09T17:00:38;19.40;99.90
41720;DHT22;27405;53.316;-6.294;2022-09-09T17:03:04;19.40;99.90
41720;DHT22;27405;53.316;-6.294;2022-09-09T17:05:29;19.40;99.90
41720;DHT22;27405;53.316;-6.294;2022-09-09T17:07:55;19.30;99.90
41720;DHT22;27405;53.316;-6.294;2022-09-09T17:10:24;19.30;99.90
41720;DHT22;27405;53.316;-6.294;2022-09-09T17:12:50;19.20;99.90
41720;DHT22;27405;53.316;-6.294;2022-09-09T17:15:16;19.20;99.90
41720;DHT22;27405;53.316;-6.294;2022-09-09T17:17:44;19.20;99.90